Time;durP1;ratioP1;P1;durP2;ratioP2;P2;SDS_P1;SDS_P2;PMS_P1;PMS_P2;Temp;Humidity;BMP_temperature;BMP_pressure;BME280_temperature;BME280_humidity;BME280_pressure;Samples;Min_cycle;Max_cycle;Signal;HPM_P1;HPM_P2
2022/03/10 00:00:46;;;;;;;25.35;10.55;;;;;;;;;;5016780;28;20172;-74
2022/03/10 00:03:13;;;;;;;20.73;8.88;;;;;;;;;;5015323;28;20715;-73
2022/03/10 00:05:39;;;;;;;27.25;10.10;;;;;;;;;;5016664;28;20204;-73
2022/03/10 00:08:05;;;;;;;19.92;9.77;;;;;;;;;;5015465;28;20210;-73
2022/03/10 00:10:31;;;;;;;22.02;9.45;;;;;;;;;;5018766;28;20578;-73
2022/03/10 00:12:57;;;;;;;24.80;10.47;;;;;;;;;;5036028;28;20184;-74
2022/03/10 00:15:24;;;;;;;20.55;9.23;;;;;;;;;;5036203;28;20407;-73
2022/03/10 00:17:51;;;;;;;20.42;9.75;;;0.60;1.00;;;;;;5036229;28;20184;-73
2022/03/10 00:20:17;;;;;;;21.95;9.75;;;;;;;;;;5018508;28;20176;-73
2022/03/10 00:22:53;;;;;;;20.33;9.35;;;0.60;1.00;;;;;;5036071;28;20215;-73
2022/03/10 00:25:19;;;;;;;23.15;10.30;;;;;;;;;;5035941;28;20172;-73
2022/03/10 00:27:47;;;;;;;21.55;10.07;;;;;;;;;;5019331;28;20562;-72
2022/03/10 00:30:14;;;;;;;26.08;10.35;;;0.50;1.00;;;;;;5035564;28;20741;-72
2022/03/10 00:32:44;;;;;;;25.10;9.20;;;0.40;1.00;;;;;;5035511;28;20256;-72
2022/03/10 00:35:10;;;;;;;24.38;10.55;;;;;;;;;;5035181;28;20172;-72
2022/03/10 00:37:47;;;;;;;24.63;10.63;;;;;;;;;;5035490;28;20173;-72
2022/03/10 00:40:13;;;;;;;21.88;9.70;;;;;;;;;;5035486;28;20171;-72
2022/03/10 00:42:39;;;;;;;26.42;10.10;;;;;;;;;;5034616;28;20611;-73
2022/03/10 00:45:06;;;;;;;21.85;9.85;;;;;;;;;;5035663;28;20660;-73
2022/03/10 00:47:33;;;;;;;20.27;9.88;;;0.30;1.00;;;;;;5035840;28;20161;-73
2022/03/10 00:50:00;;;;;;;17.85;9.80;;;;;;;;;;5035487;28;20660;-73
2022/03/10 00:52:27;;;;;;;20.65;9.18;;;;;;;;;;5022184;28;20203;-74
2022/03/10 00:54:53;;;;;;;19.70;9.20;;;;;;;;;;5035327;28;20165;-73
2022/03/10 00:57:23;;;;;;;20.40;9.55;;;;;;;;;;5036076;28;20540;-74
2022/03/10 00:59:49;;;;;;;26.27;10.13;;;;;;;;;;5035216;28;20165;-73
2022/03/10 01:02:15;;;;;;;26.08;9.75;;;;;;;;;;5035239;28;20585;-73
2022/03/10 01:04:46;;;;;;;22.00;9.85;;;;;;;;;;5017331;28;20548;-74
2022/03/10 01:07:13;;;;;;;22.70;9.60;;;;;;;;;;5035323;28;20184;-73
2022/03/10 01:09:39;;;;;;;21.67;10.25;;;;;;;;;;5035220;28;20239;-73
2022/03/10 01:12:05;;;;;;;20.95;10.27;;;;;;;;;;5020809;28;20769;-72
2022/03/10 01:14:31;;;;;;;22.40;9.30;;;;;;;;;;5012288;28;20177;-72
2022/03/10 01:16:58;;;;;;;31.17;9.85;;;;;;;;;;5015095;28;20181;-72
2022/03/10 01:19:24;;;;;;;23.02;10.48;;;;;;;;;;5014767;28;20204;-72
2022/03/10 01:21:50;;;;;;;24.08;10.40;;;;;;;;;;5015291;28;20181;-72
2022/03/10 01:24:16;;;;;;;25.10;10.32;;;;;;;;;;5014551;28;20622;-72
2022/03/10 01:26:43;;;;;;;20.58;10.00;;;;;;;;;;5015417;28;20181;-73
2022/03/10 01:29:13;;;;;;;24.52;10.18;;;;;;;;;;5014867;28;20169;-73
2022/03/10 01:31:39;;;;;;;26.73;10.20;;;;;;;;;;5015335;28;20170;-74
2022/03/10 01:34:05;;;;;;;19.67;9.52;;;;;;;;;;5014862;28;20204;-73
2022/03/10 01:36:34;;;;;;;21.10;10.13;;;;;;;;;;4997463;28;20203;-73
2022/03/10 01:39:05;;;;;;;21.75;10.10;;;;;;;;;;5014648;28;20519;-73
2022/03/10 01:41:35;;;;;;;21.50;10.07;;;;;;;;;;5015268;28;20649;-73
2022/03/10 01:44:05;;;;;;;17.42;9.25;;;;;;;;;;5014522;28;20268;-73
2022/03/10 01:46:31;;;;;;;22.70;10.35;;;;;;;;;;5014709;28;20271;-73
2022/03/10 01:48:57;;;;;;;22.02;9.32;;;;;;;;;;5014798;28;20204;-73
2022/03/10 01:51:24;;;;;;;20.17;9.18;;;;;;;;;;5014793;28;20272;-73
2022/03/10 01:53:51;;;;;;;17.98;8.60;;;;;;;;;;5014521;28;20173;-73
2022/03/10 01:56:23;;;;;;;18.88;9.88;;;-0.20;1.00;;;;;;5014990;28;20216;-72
2022/03/10 01:58:53;;;;;;;25.38;9.25;;;;;;;;;;4997122;28;20268;-73
2022/03/10 02:01:20;;;;;;;17.75;9.20;;;;;;;;;;5014623;28;20304;-73
2022/03/10 02:03:46;;;;;;;23.00;9.82;;;;;;;;;;5014210;28;20177;-73
2022/03/10 02:06:13;;;;;;;19.23;9.10;;;-0.20;1.00;;;;;;5014428;28;20181;-74
2022/03/10 02:11:25;;;;;;;20.80;9.48;;;0.00;1.00;;;;;;5023532;28;20335;-72
2022/03/10 02:13:51;;;;;;;22.38;10.20;;;;;;;;;;5025550;28;20178;-73
2022/03/10 02:19:03;;;;;;;19.92;9.45;;;-0.30;1.00;;;;;;5033790;28;20211;-72
2022/03/10 02:21:30;;;;;;;24.83;9.95;;;;;;;;;;5033872;28;20172;-72
2022/03/10 02:23:56;;;;;;;20.85;9.70;;;;;;;;;;5033721;28;20180;-72
2022/03/10 02:26:22;;;;;;;21.80;10.20;;;;;;;;;;5033709;28;20633;-72
2022/03/10 02:28:50;;;;;;;19.45;9.75;;;;;;;;;;5033809;28;20266;-72
2022/03/10 02:31:16;;;;;;;23.30;9.10;;;;;;;;;;5033453;28;20196;-73
2022/03/10 02:33:42;;;;;;;27.65;10.10;;;;;;;;;;5033385;28;20160;-72
2022/03/10 02:36:08;;;;;;;17.55;9.00;;;;;;;;;;5033383;28;20586;-72
2022/03/10 02:38:34;;;;;;;18.40;8.95;;;;;;;;;;5033374;28;20221;-73
2022/03/10 02:41:00;;;;;;;28.85;10.65;;;;;;;;;;5032965;28;20176;-72
2022/03/10 02:43:26;;;;;;;21.20;9.15;;;;;;;;;;5033804;28;20251;-72
2022/03/10 02:45:53;;;;;;;19.02;9.07;;;;;;;;;;5023419;28;20661;-72
2022/03/10 02:48:19;;;;;;;29.60;10.18;;;;;;;;;;5033375;28;20564;-72
2022/03/10 02:50:45;;;;;;;19.98;9.82;;;-0.60;1.00;;;;;;5033126;28;20278;-72
2022/03/10 02:53:11;;;;;;;25.30;9.27;;;-0.60;1.00;;;;;;5033030;28;20651;-72
2022/03/10 02:55:41;;;;;;;18.90;8.63;;;-0.60;1.00;;;;;;5033028;28;20279;-72
2022/03/10 02:58:07;;;;;;;20.52;9.43;;;;;;;;;;5033710;28;20186;-73
2022/03/10 03:00:33;;;;;;;19.48;9.15;;;;;;;;;;5030790;28;20508;-73
2022/03/10 03:02:59;;;;;;;21.15;9.40;;;;;;;;;;5029912;28;20280;-73
2022/03/10 03:05:25;;;;;;;17.60;8.55;;;;;;;;;;5033078;28;20649;-73
2022/03/10 03:07:53;;;;;;;22.42;9.15;;;;;;;;;;5033271;28;20183;-73
2022/03/10 03:10:18;;;;;;;31.90;10.32;;;-0.60;1.00;;;;;;5020191;28;20674;-73
2022/03/10 03:12:47;;;;;;;17.27;9.00;;;-0.70;1.00;;;;;;5034010;28;20259;-73
2022/03/10 03:15:18;;;;;;;20.90;9.43;;;-0.70;1.00;;;;;;5036069;28;20472;-73
2022/03/10 03:17:44;;;;;;;25.67;9.45;;;;;;;;;;5041633;28;20169;-73
2022/03/10 03:20:14;;;;;;;20.88;9.65;;;-0.80;1.00;;;;;;5033775;28;20187;-73
2022/03/10 03:22:42;;;;;;;24.77;9.98;;;-0.70;1.00;;;;;;5033522;28;20218;-73
2022/03/10 03:25:14;;;;;;;17.85;9.63;;;-0.70;1.00;;;;;;5033140;28;20620;-73
2022/03/10 03:27:41;;;;;;;24.70;9.38;;;-0.70;1.00;;;;;;5031199;28;20219;-72
2022/03/10 03:30:11;;;;;;;16.02;8.65;;;;;;;;;;5047755;28;20530;-72
2022/03/10 03:32:37;;;;;;;20.13;9.25;;;;;;;;;;5036903;28;20172;-72
2022/03/10 03:35:04;;;;;;;17.90;9.45;;;;;;;;;;5042818;28;20712;-72
2022/03/10 03:37:30;;;;;;;23.00;10.20;;;;;;;;;;5034063;28;20180;-72
2022/03/10 03:39:56;;;;;;;20.33;8.40;;;;;;;;;;5042508;28;20687;-72
2022/03/10 03:42:22;;;;;;;21.98;10.00;;;;;;;;;;5033277;28;20708;-72
2022/03/10 03:44:53;;;;;;;23.52;9.82;;;;;;;;;;5034437;28;20184;-72
2022/03/10 03:47:19;;;;;;;28.45;8.88;;;;;;;;;;5034735;28;20187;-72
2022/03/10 03:49:47;;;;;;;23.40;9.07;;;;;;;;;;5032280;28;20652;-72
2022/03/10 03:52:13;;;;;;;25.08;9.40;;;;;;;;;;5032714;28;20629;-72
2022/03/10 03:54:41;;;;;;;28.13;9.20;;;;;;;;;;5032593;28;20173;-72
2022/03/10 03:57:07;;;;;;;19.75;9.38;;;;;;;;;;5032734;28;20175;-72
2022/03/10 03:59:33;;;;;;;20.15;9.38;;;;;;;;;;5040751;28;20188;-73
2022/03/10 04:01:59;;;;;;;18.90;9.55;;;;;;;;;;5034337;28;20246;-73
2022/03/10 04:04:25;;;;;;;17.45;8.73;;;;;;;;;;5032892;28;20510;-74
2022/03/10 04:06:51;;;;;;;20.00;9.65;;;;;;;;;;5033206;28;20641;-73
2022/03/10 04:09:17;;;;;;;17.48;9.52;;;;;;;;;;5032726;28;20203;-73
2022/03/10 04:11:44;;;;;;;21.65;9.27;;;;;;;;;;5040853;28;20294;-73
2022/03/10 04:14:13;;;;;;;21.30;9.43;;;;;;;;;;5033021;28;20176;-72
2022/03/10 04:16:39;;;;;;;19.08;9.48;;;;;;;;;;5049424;28;20176;-72
2022/03/10 04:19:05;;;;;;;21.13;8.90;;;;;;;;;;5041318;28;20172;-72
2022/03/10 04:21:32;;;;;;;25.33;8.95;;;;;;;;;;5036154;28;20203;-72
2022/03/10 04:23:59;;;;;;;16.25;8.07;;;;;;;;;;5037013;28;20172;-72
2022/03/10 04:26:29;;;;;;;18.20;8.25;;;;;;;;;;5035872;28;20179;-72
2022/03/10 04:28:55;;;;;;;19.73;8.98;;;;;;;;;;5041326;28;20183;-73
2022/03/10 04:31:23;;;;;;;17.27;8.82;;;;;;;;;;5036083;28;20232;-73
2022/03/10 04:33:49;;;;;;;19.13;9.10;;;;;;;;;;5035896;28;20168;-73
2022/03/10 04:36:15;;;;;;;15.18;8.43;;;;;;;;;;5035983;28;20179;-73
2022/03/10 04:38:59;;;;;;;19.30;8.43;;;;;;;;;;5035899;28;20176;-73
2022/03/10 04:41:25;;;;;;;13.35;7.47;;;;;;;;;;5035754;28;20533;-73
2022/03/10 04:43:51;;;;;;;26.67;8.30;;;;;;;;;;5039454;28;20685;-72
2022/03/10 04:46:17;;;;;;;24.67;9.68;;;;;;;;;;5039772;28;20640;-72
2022/03/10 04:48:47;;;;;;;16.98;8.52;;;;;;;;;;5033864;28;20679;-72
2022/03/10 04:51:13;;;;;;;17.38;9.13;;;;;;;;;;5027920;28;20249;-72
2022/03/10 04:53:39;;;;;;;25.00;8.68;;;;;;;;;;5052277;28;20504;-72
2022/03/10 04:56:05;;;;;;;17.40;8.52;;;;;;;;;;5045309;28;20160;-72
2022/03/10 04:58:35;;;;;;;27.90;9.63;;;;;;;;;;5036036;28;20521;-72
2022/03/10 05:01:01;;;;;;;22.75;8.60;;;;;;;;;;5036665;28;20168;-73
2022/03/10 05:03:27;;;;;;;22.83;9.30;;;;;;;;;;5040457;28;20183;-72
2022/03/10 05:05:53;;;;;;;20.67;9.80;;;;;;;;;;5035171;28;20561;-72
2022/03/10 05:08:19;;;;;;;19.02;8.93;;;;;;;;;;5039310;28;20423;-72
2022/03/10 05:10:45;;;;;;;20.90;10.10;;;;;;;;;;5035140;28;20667;-72
2022/03/10 05:13:11;;;;;;;40.13;10.20;;;;;;;;;;5038227;28;20176;-73
2022/03/10 05:15:41;;;;;;;18.17;9.77;;;;;;;;;;5035604;28;20884;-73
2022/03/10 05:18:08;;;;;;;18.75;8.25;;;;;;;;;;5034892;28;20177;-73
2022/03/10 05:20:34;;;;;;;17.98;8.45;;;;;;;;;;5035211;28;20172;-73
2022/03/10 05:23:01;;;;;;;15.50;7.95;;;;;;;;;;5021230;28;20565;-73
2022/03/10 05:25:37;;;;;;;18.30;9.57;;;-0.60;1.00;;;;;;5027612;28;20168;-73
2022/03/10 05:28:04;;;;;;;20.90;9.38;;;-0.70;1.00;;;;;;5023136;28;20200;-73
2022/03/10 05:30:31;;;;;;;23.35;8.60;;;;;;;;;;5042120;28;20203;-72
2022/03/10 05:32:57;;;;;;;20.50;9.05;;;;;;;;;;5039416;28;20175;-72
2022/03/10 05:35:29;;;;;;;17.92;8.73;;;;;;;;;;5035654;28;20629;-72
2022/03/10 05:37:56;;;;;;;17.85;9.20;;;-0.70;1.00;;;;;;5037849;28;20172;-72
2022/03/10 05:40:22;;;;;;;22.25;9.10;;;;;;;;;;5036562;28;20184;-72
2022/03/10 05:42:50;;;;;;;14.50;8.15;;;-0.70;1.00;;;;;;5037849;28;20705;-72
2022/03/10 05:45:20;;;;;;;25.23;9.23;;;;;;;;;;5038725;28;20183;-72
2022/03/10 05:47:46;;;;;;;25.33;9.40;;;;;;;;;;5034761;28;20681;-73
2022/03/10 05:50:12;;;;;;;19.40;8.57;;;;;;;;;;5034139;28;20238;-72
2022/03/10 05:52:39;;;;;;;27.27;10.07;;;;;;;;;;5033832;28;20260;-73
2022/03/10 05:55:05;;;;;;;20.55;8.40;;;;;;;;;;5034275;28;20189;-72
2022/03/10 05:57:35;;;;;;;19.17;8.73;;;;;;;;;;5039114;28;20179;-72
2022/03/10 06:00:01;;;;;;;18.65;8.68;;;;;;;;;;5035151;28;20180;-73
2022/03/10 06:02:29;;;;;;;25.95;10.10;;;;;;;;;;5035577;28;20485;-73
2022/03/10 06:05:01;;;;;;;16.38;8.27;;;-0.70;1.00;;;;;;5038020;28;20180;-73
2022/03/10 06:07:28;;;;;;;22.23;9.80;;;-0.70;1.00;;;;;;5035483;28;20176;-73
2022/03/10 06:09:55;;;;;;;30.10;8.90;;;;;;;;;;5034215;28;20552;-73
2022/03/10 06:12:26;;;;;;;24.20;8.98;;;;;;;;;;5034238;28;20235;-73
2022/03/10 06:14:59;;;;;;;25.20;9.52;;;;;;;;;;5036683;28;20262;-73
2022/03/10 06:17:25;;;;;;;19.45;9.07;;;;;;;;;;5039014;28;20255;-73
2022/03/10 06:19:53;;;;;;;18.13;8.93;;;;;;;;;;5034381;28;20171;-73
2022/03/10 06:22:20;;;;;;;22.95;9.15;;;-0.50;1.00;;;;;;5036037;28;20177;-73
2022/03/10 06:24:47;;;;;;;22.13;9.50;;;;;;;;;;5041193;28;20191;-74
2022/03/10 06:27:13;;;;;;;19.30;9.20;;;;;;;;;;5035429;28;20259;-74
2022/03/10 06:29:41;;;;;;;27.48;9.13;;;-0.30;1.00;;;;;;5034851;28;20571;-73
2022/03/10 06:32:12;;;;;;;30.60;9.70;;;-0.20;1.00;;;;;;5047455;28;20176;-74
2022/03/10 06:34:41;;;;;;;19.35;8.02;;;;;;;;;;5037454;28;20591;-73
2022/03/10 06:37:08;;;;;;;35.53;10.50;;;-0.10;1.00;;;;;;5033391;28;20176;-74
2022/03/10 06:39:35;;;;;;;16.58;8.40;;;;;;;;;;5014112;28;20208;-74
2022/03/10 06:42:05;;;;;;;19.92;8.68;;;0.00;1.00;;;;;;5030946;28;20180;-73
2022/03/10 06:44:31;;;;;;;27.27;8.77;;;;;;;;;;5036657;28;20172;-72
2022/03/10 06:46:59;;;;;;;19.20;8.45;;;;;;;;;;5039691;28;20204;-72
2022/03/10 06:49:29;;;;;;;20.77;8.70;;;;;;;;;;5035639;28;20318;-73
2022/03/10 06:51:59;;;;;;;22.27;9.70;;;;;;;;;;5035878;28;20230;-72
2022/03/10 06:54:25;;;;;;;16.75;8.15;;;;;;;;;;5032876;28;20176;-72
2022/03/10 06:56:59;;;;;;;26.73;9.18;;;;;;;;;;5033204;28;20508;-73
2022/03/10 06:59:25;;;;;;;53.90;11.75;;;;;;;;;;5034371;28;20172;-74
2022/03/10 07:01:51;;;;;;;21.13;9.77;;;;;;;;;;5034715;28;20195;-74
2022/03/10 07:04:17;;;;;;;23.15;8.30;;;;;;;;;;5035513;28;20211;-75
2022/03/10 07:06:47;;;;;;;19.52;9.30;;;;;;;;;;5037535;28;20209;-75
2022/03/10 07:09:29;;;;;;;26.35;9.73;;;;;;;;;;5034498;28;20172;-74
2022/03/10 07:11:55;;;;;;;30.58;9.82;;;;;;;;;;5044859;28;20214;-74
2022/03/10 07:14:21;;;;;;;19.77;9.48;;;;;;;;;;5036076;28;20180;-74
2022/03/10 07:16:53;;;;;;;18.50;8.40;;;;;;;;;;5037937;28;20625;-73
2022/03/10 07:19:19;;;;;;;16.77;8.27;;;;;;;;;;5033177;28;20176;-73
2022/03/10 07:21:45;;;;;;;20.73;9.30;;;;;;;;;;5033078;28;20184;-74
2022/03/10 07:24:12;;;;;;;22.23;8.30;;;;;;;;;;5033051;28;20172;-74
2022/03/10 07:26:38;;;;;;;17.85;8.20;;;;;;;;;;5033289;28;20176;-74
2022/03/10 07:29:04;;;;;;;21.52;8.60;;;;;;;;;;5034352;28;20583;-73
2022/03/10 07:31:32;;;;;;;16.25;8.60;;;2.10;1.00;;;;;;5033418;28;20188;-72
2022/03/10 07:33:58;;;;;;;21.05;7.78;;;;;;;;;;5037918;28;20518;-73
2022/03/10 07:36:24;;;;;;;31.63;9.20;;;2.40;1.00;;;;;;5035815;28;20191;-73
2022/03/10 07:38:50;;;;;;;19.98;8.88;;;;;;;;;;5034296;28;20185;-72
2022/03/10 07:41:17;;;;;;;21.33;8.95;;;;;;;;;;5032845;28;20231;-72
2022/03/10 07:43:53;;;;;;;19.65;8.52;;;;;;;;;;5042274;28;20226;-72
2022/03/10 07:46:22;;;;;;;31.95;7.70;;;;;;;;;;5030596;28;20656;-72
2022/03/10 07:48:49;;;;;;;44.67;8.63;;;;;;;;;;5027946;28;20193;-73
2022/03/10 07:51:15;;;;;;;21.25;6.05;;;;;;;;;;5032482;28;20211;-73
2022/03/10 07:53:41;;;;;;;14.30;5.03;;;;;;;;;;5040009;28;20637;-72
2022/03/10 07:56:07;;;;;;;14.48;6.15;;;;;;;;;;5036395;28;20883;-73
2022/03/10 07:58:33;;;;;;;13.75;5.15;;;;;;;;;;5038273;28;20775;-73
2022/03/10 08:00:59;;;;;;;22.92;6.20;;;;;;;;;;5036528;28;20176;-74
2022/03/10 08:03:29;;;;;;;16.77;6.40;;;;;;;;;;5029780;28;20571;-74
2022/03/10 08:05:55;;;;;;;15.53;6.40;;;;;;;;;;5036220;28;20187;-74
2022/03/10 08:08:23;;;;;;;18.27;6.13;;;;;;;;;;5018761;28;20930;-74
2022/03/10 08:10:49;;;;;;;29.53;7.57;;;;;;;;;;5036078;28;20204;-74
2022/03/10 08:13:18;;;;;;;16.03;5.97;;;;;;;;;;5036519;28;20769;-74
2022/03/10 08:15:45;;;;;;;21.23;7.73;;;;;;;;;;5043726;28;20438;-74
2022/03/10 08:18:11;;;;;;;14.70;7.20;;;5.60;1.00;;;;;;5036194;28;20505;-74
2022/03/10 08:20:39;;;;;;;18.40;7.50;;;;;;;;;;5039509;28;20473;-74
2022/03/10 08:23:05;;;;;;;17.80;6.43;;;;;;;;;;5036235;28;20503;-74
2022/03/10 08:25:31;;;;;;;41.40;8.47;;;;;;;;;;5034607;28;20921;-74
2022/03/10 08:27:58;;;;;;;19.07;7.77;;;;;;;;;;5049498;28;20415;-74
2022/03/10 08:30:35;;;;;;;14.57;6.50;;;;;;;;;;5035159;28;20950;-74
2022/03/10 08:33:22;;;;;;;13.83;6.87;;;6.50;99.90;;;;;;5035819;28;21078;-74
2022/03/10 08:35:53;;;;;;;19.63;7.83;;;;;;;;;;5038108;28;20414;-75
2022/03/10 08:38:23;;;;;;;22.73;7.50;;;;;;;;;;5055427;28;20867;-74
2022/03/10 08:40:49;;;;;;;24.33;8.40;;;;;;;;;;5036181;28;20410;-74
2022/03/10 08:43:15;;;;;;;22.80;7.80;;;;;;;;;;5038420;28;20433;-75
2022/03/10 08:45:42;;;;;;;60.60;10.63;;;;;;;;;;5037985;28;20419;-72
2022/03/10 08:48:08;;;;;;;22.07;7.90;;;;;;;;;;5031634;28;20484;-72
2022/03/10 08:50:35;;;;;;;14.93;7.23;;;;;;;;;;5034813;28;20521;-72
2022/03/10 08:53:01;;;;;;;14.23;7.90;;;;;;;;;;5035106;28;20419;-72
2022/03/10 08:55:27;;;;;;;22.73;8.50;;;;;;;;;;5035072;28;20904;-72
2022/03/10 08:57:55;;;;;;;16.33;7.53;;;;;;;;;;5035176;28;20421;-73
2022/03/10 09:00:21;;;;;;;22.93;8.53;;;;;;;;;;5035298;28;20455;-74
2022/03/10 09:02:47;;;;;;;25.73;8.63;;;;;;;;;;5043134;28;20467;-74
2022/03/10 09:05:13;;;;;;;21.93;8.60;;;;;;;;;;5035050;28;20419;-74
2022/03/10 09:07:47;;;;;;;18.20;7.50;;;;;;;;;;5035394;28;20393;-74
2022/03/10 09:10:13;;;;;;;20.63;8.47;;;;;;;;;;5036251;28;20526;-74
2022/03/10 09:12:39;;;;;;;18.40;8.10;;;;;;;;;;5031677;28;20417;-74
2022/03/10 09:15:06;;;;;;;37.17;9.73;;;;;;;;;;5034652;28;20437;-74
2022/03/10 09:17:32;;;;;;;54.70;12.37;;;;;;;;;;5019252;28;20470;-72
2022/03/10 09:19:58;;;;;;;25.60;10.20;;;;;;;;;;5032249;28;20414;-72
2022/03/10 09:22:25;;;;;;;31.43;9.83;;;;;;;;;;5041176;28;20418;-72
2022/03/10 09:24:53;;;;;;;21.90;8.93;;;8.50;99.90;;;;;;5032129;28;20600;-72
2022/03/10 09:27:19;;;;;;;41.53;10.57;;;;;;;;;;5040174;28;20426;-72
2022/03/10 09:29:47;;;;;;;22.40;9.90;;;;;;;;;;5037941;28;20422;-72
2022/03/10 09:32:18;;;;;;;23.70;9.60;;;;;;;;;;5036165;28;20922;-72
2022/03/10 09:34:44;;;;;;;19.07;8.57;;;;;;;;;;5031999;28;20423;-72
2022/03/10 09:37:11;;;;;;;19.80;8.17;;;;;;;;;;5034630;28;20421;-72
2022/03/10 09:39:37;;;;;;;22.13;9.10;;;;;;;;;;5035497;28;20433;-72
2022/03/10 09:42:05;;;;;;;33.63;10.60;;;;;;;;;;5015256;28;20435;-72
2022/03/10 09:44:34;;;;;;;31.50;9.77;;;9.40;99.90;;;;;;5034514;28;20510;-72
2022/03/10 09:47:03;;;;;;;22.67;9.37;;;;;;;;;;5035570;28;20882;-72
2022/03/10 09:49:35;;;;;;;23.63;9.63;;;9.70;99.90;;;;;;5037610;28;20538;-72
2022/03/10 09:52:08;;;;;;;23.67;9.57;;;;;;;;;;5033753;28;20438;-72
2022/03/10 09:54:33;;;;;;;24.50;9.13;;;;;;;;;;5034016;28;20482;-72
2022/03/10 09:57:01;;;;;;;24.40;10.27;;;9.80;99.90;;;;;;5035346;28;20970;-72
2022/03/10 09:59:47;;;;;;;25.47;10.80;;;10.00;99.90;;;;;;5034239;28;20440;-72
2022/03/10 10:02:13;;;;;;;20.60;9.30;;;;;;;;;;5035205;28;20468;-72
2022/03/10 10:04:41;;;;;;;18.80;8.47;;;;;;;;;;5042209;28;20415;-72
2022/03/10 10:07:10;;;;;;;22.20;9.43;;;;;;;;;;5037615;28;20417;-72
2022/03/10 10:09:39;;;;;;;24.67;9.33;;;;;;;;;;5033745;28;20497;-72
2022/03/10 10:12:06;;;;;;;18.50;8.53;;;;;;;;;;5040536;28;20930;-72
2022/03/10 10:15:00;;;;;;;43.47;10.73;;;10.50;99.90;;;;;;5030240;28;20927;-72
2022/03/10 10:17:29;;;;;;;21.67;8.83;;;10.60;99.90;;;;;;5033920;28;20893;-72
2022/03/10 10:20:00;;;;;;;15.33;7.93;;;10.80;99.90;;;;;;5034021;28;20484;-72
2022/03/10 10:22:29;;;;;;;24.70;10.17;;;;;;;;;;5033482;28;20430;-72
2022/03/10 10:24:57;;;;;;;26.63;8.13;;;;;;;;;;5033434;28;20465;-72
2022/03/10 10:27:25;;;;;;;24.50;9.00;;;;;;;;;;5033515;28;20521;-72
2022/03/10 10:29:59;;;;;;;28.90;8.60;;;11.30;99.90;;;;;;5033171;28;20426;-73
2022/03/10 10:32:41;;;;;;;24.80;9.40;;;;;;;;;;5033727;28;20411;-75
2022/03/10 10:35:14;;;;;;;22.53;9.07;;;11.50;99.90;;;;;;5018136;28;20427;-75
2022/03/10 10:37:48;;;;;;;13.67;6.90;;;11.60;99.90;;;;;;5016062;28;20394;-75
2022/03/10 10:40:26;;;;;;;14.30;6.60;;;11.80;99.90;;;;;;5032606;28;20500;-75
2022/03/10 10:42:53;;;;;;;17.53;7.27;;;;;;;;;;5033633;28;20950;-75
2022/03/10 10:45:26;;;;;;;27.27;7.53;;;12.10;99.90;;;;;;5038389;28;20414;-75
2022/03/10 10:48:02;;;;;;;15.73;6.70;;;12.30;99.90;;;;;;5033922;28;20459;-72
2022/03/10 10:50:29;;;;;;;19.00;7.00;;;12.40;99.90;;;;;;5026716;28;20946;-72
2022/03/10 10:52:56;;;;;;;15.83;6.60;;;;;;;;;;5033202;28;20442;-72
2022/03/10 10:55:34;;;;;;;19.43;7.30;;;12.60;99.90;;;;;;5044186;28;20445;-72
2022/03/10 10:58:11;;;;;;;18.50;6.87;;;12.70;99.90;;;;;;5016947;28;20788;-72
2022/03/10 11:00:46;;;;;;;23.83;7.97;;;12.90;99.90;;;;;;5032931;28;20773;-72
2022/03/10 11:03:22;;;;;;;15.50;6.13;;;;;;;;;;5036911;28;20436;-72
2022/03/10 11:05:48;;;;;;;18.97;7.03;;;;;;;;;;5040579;28;20464;-72
2022/03/10 11:08:17;;;;;;;17.00;6.73;;;13.00;99.90;;;;;;5027134;28;20792;-72
2022/03/10 11:10:43;;;;;;;14.23;6.50;;;;;;;;;;5032793;28;20530;-72
2022/03/10 11:13:10;;;;;;;24.80;7.20;;;;;;;;;;5033887;28;20393;-72
2022/03/10 11:15:38;;;;;;;18.13;7.27;;;;;;;;;;5034483;28;20438;-72
2022/03/10 11:18:05;;;;;;;23.03;6.67;;;;;;;;;;5022050;28;20423;-73
2022/03/10 11:20:34;;;;;;;16.87;5.60;;;;;;;;;;5015362;28;20401;-73
2022/03/10 11:23:09;;;;;;;18.37;6.60;;;;;;;;;;5028921;28;20405;-76
2022/03/10 11:25:54;;;;;;;14.77;5.87;;;13.60;99.90;;;;;;5028201;28;20404;-75
2022/03/10 11:28:21;;;;;;;12.03;5.80;;;;;;;;;;5043980;28;20724;-75
2022/03/10 11:30:51;;;;;;;13.57;6.27;;;;;;;;;;5022674;28;20447;-75
2022/03/10 11:33:18;;;;;;;15.20;5.17;;;;;;;;;;5037166;28;20394;-72
2022/03/10 11:35:47;;;;;;;12.87;5.53;;;;;;;;;;5036772;28;20397;-72
2022/03/10 11:38:18;;;;;;;14.03;5.80;;;;;;;;;;5031886;28;20401;-72
2022/03/10 11:40:56;;;;;;;17.57;5.07;;;13.80;99.90;;;;;;5036396;28;20756;-72
2022/03/10 11:43:33;;;;;;;14.90;4.80;;;13.90;99.90;;;;;;5041790;28;20397;-72
2022/03/10 11:46:18;;;;;;;11.00;4.60;;;14.10;99.90;;;;;;5036681;28;20385;-72
2022/03/10 11:48:59;;;;;;;15.67;4.27;;;;;;;;;;5021413;28;20911;-75
2022/03/10 11:51:52;;;;;;;12.00;5.20;;;14.30;99.90;;;;;;5036512;28;20465;-75
2022/03/10 11:54:29;;;;;;;11.00;5.27;;;;;;;;;;5031591;28;20410;-74
2022/03/10 11:57:03;;;;;;;12.57;5.20;;;14.40;99.90;;;;;;5040394;28;20424;-74
2022/03/10 11:59:33;;;;;;;10.63;4.93;;;;;;;;;;5036297;28;20531;-73
2022/03/10 12:02:05;;;;;;;50.60;7.70;;;;;;;;;;5042666;28;20403;-76
2022/03/10 12:04:36;;;;;;;8.00;4.10;;;14.60;99.90;;;;;;5036643;28;20362;-77
2022/03/10 12:07:06;;;;;;;13.20;5.13;;;14.60;99.90;;;;;;5036950;28;20757;-78
2022/03/10 12:09:36;;;;;;;14.73;5.40;;;;;;;;;;5018572;28;20405;-78
2022/03/10 12:15:29;;;;;;;15.43;5.43;;;;;;;;;;5026822;28;20422;-76
2022/03/10 12:18:12;;;;;;;16.20;5.37;;;15.00;99.90;;;;;;4931518;29;20934;-73
2022/03/10 12:20:40;;;;;;;12.10;5.00;;;;;;;;;;4943207;29;20405;-73
2022/03/10 12:23:07;;;;;;;19.33;5.70;;;;;;;;;;4931418;29;20523;-73
2022/03/10 12:25:40;;;;;;;12.90;5.10;;;;;;;;;;4933982;29;20480;-72
2022/03/10 12:28:08;;;;;;;15.20;5.33;;;15.30;99.90;;;;;;4934161;29;20423;-68
2022/03/10 12:30:41;;;;;;;9.83;4.23;;;15.40;99.90;;;;;;4933150;29;21095;-73
2022/03/10 12:33:07;;;;;;;11.77;4.87;;;;;;;;;;4923575;29;20449;-74
2022/03/10 12:35:35;;;;;;;14.53;5.07;;;;;;;;;;4935282;29;20549;-73
2022/03/10 12:38:01;;;;;;;17.73;5.73;;;;;;;;;;4939861;28;20892;-73
2022/03/10 12:40:29;;;;;;;13.87;4.80;;;;;;;;;;4937218;29;20447;-73
2022/03/10 12:43:02;;;;;;;13.13;4.70;;;;;;;;;;4942989;29;20427;-73
2022/03/10 12:45:28;;;;;;;19.60;4.70;;;15.50;99.90;;;;;;4946342;29;20435;-73
2022/03/10 12:48:09;;;;;;;12.33;4.13;;;15.70;99.90;;;;;;4935872;29;20439;-76
2022/03/10 12:50:36;;;;;;;9.73;4.00;;;15.60;99.90;;;;;;4934787;29;20849;-75
2022/03/10 12:53:15;;;;;;;12.40;4.70;;;;;;;;;;4938682;29;20422;-75
2022/03/10 12:55:42;;;;;;;8.87;4.30;;;15.80;99.90;;;;;;5022396;28;20484;-75
2022/03/10 12:58:08;;;;;;;9.53;4.70;;;;;;;;;;5036126;28;20420;-75
2022/03/10 13:00:39;;;;;;;18.23;4.60;;;15.90;99.90;;;;;;5045221;28;20432;-75
2022/03/10 13:03:05;;;;;;;13.13;4.37;;;;;;;;;;5039243;28;21091;-73
2022/03/10 13:05:32;;;;;;;20.23;4.73;;;;;;;;;;5041975;28;20411;-73
2022/03/10 13:08:13;;;;;;;13.60;4.00;;;;;;;;;;5017354;28;20407;-73
2022/03/10 13:10:39;;;;;;;19.40;4.30;;;15.80;99.90;;;;;;5036264;28;20486;-74
2022/03/10 13:13:05;;;;;;;13.10;3.67;;;;;;;;;;5035332;28;20423;-74
2022/03/10 13:15:33;;;;;;;22.13;5.50;;;;;;;;;;5017202;28;20173;-72
2022/03/10 13:18:01;;;;;;;20.00;4.27;;;;;;;;;;5035546;28;20406;-74
2022/03/10 13:20:29;;;;;;;12.97;4.33;;;15.80;99.90;;;;;;5034757;28;20431;-73
2022/03/10 13:23:00;;;;;;;16.67;5.20;;;;;;;;;;5022406;28;21030;-74
2022/03/10 13:25:33;;;;;;;12.80;4.27;;;16.00;99.90;;;;;;5041174;28;20395;-74
2022/03/10 13:28:00;;;;;;;11.40;4.30;;;;;;;;;;5042358;28;20487;-73
2022/03/10 13:30:28;;;;;;;13.20;5.57;;;15.90;99.90;;;;;;5034546;28;20494;-73
2022/03/10 13:32:55;;;;;;;16.73;5.63;;;;;;;;;;5034691;28;20427;-73
2022/03/10 13:35:26;;;;;;;10.80;4.80;;;15.90;99.90;;;;;;5034726;28;20461;-73
2022/03/10 13:37:52;;;;;;;10.27;4.73;;;;;;;;;;5016502;28;20494;-73
2022/03/10 13:40:19;;;;;;;12.77;4.20;;;;;;;;;;5036777;28;20498;-74
2022/03/10 13:42:46;;;;;;;10.33;4.40;;;;;;;;;;5044443;28;20401;-73
2022/03/10 13:45:12;;;;;;;18.90;5.30;;;16.10;99.90;;;;;;5035372;28;20417;-73
2022/03/10 13:47:54;;;;;;;13.77;4.87;;;16.20;99.90;;;;;;5041871;28;20458;-73
2022/03/10 13:50:23;;;;;;;16.80;5.53;;;;;;;;;;5029798;28;25325;-73
2022/03/10 13:52:50;;;;;;;37.67;7.23;;;;;;;;;;5033710;28;20458;-75
2022/03/10 13:55:16;;;;;;;12.80;5.40;;;;;;;;;;5039004;28;20460;-75
2022/03/10 13:57:46;;;;;;;10.37;4.93;;;16.40;99.90;;;;;;5034496;28;20491;-77
2022/03/10 14:00:12;;;;;;;11.40;6.17;;;16.30;99.90;;;;;;5037084;28;20446;-76
2022/03/10 14:02:49;;;;;;;15.00;6.40;;;16.20;99.90;;;;;;5053796;28;20409;-75
2022/03/10 14:05:15;;;;;;;12.53;5.70;;;;;;;;;;5034567;28;20423;-74
2022/03/10 14:07:51;;;;;;;13.67;5.30;;;16.30;99.90;;;;;;5016399;28;20426;-74
2022/03/10 14:10:27;;;;;;;14.10;5.60;;;16.30;99.90;;;;;;5034867;28;20852;-74
2022/03/10 14:12:53;;;;;;;19.60;5.93;;;;;;;;;;5033926;28;20430;-74
2022/03/10 14:15:38;;;;;;;13.97;6.03;;;16.40;99.90;;;;;;5034546;28;20961;-74